Seroja Empat — 3FOE7 — position and weather

sailwx.info

Track history (hours):
 
Tides and Currents Weather Stations Pressure Air Temp Water Temp Dewpoint Dewpoint Depression Visibility Wind Speed Wind Dir Waves Ship Positions

Seroja Empat

Last reported at 2018-Jun-01 16:29 UTC. Time now 2018-Jun-22 05:42 UTC.
Position N 37°34' E 016°13'.
Warning: this ship's position is 20 days out of date.

Length 316 m; draft 12.6 m.

Type: Ship (hazmat cat A). MMSI: 356575000.

Date/timePositionNaut miles runAvg speedWind from/ knotsBaromVisibWave heightAir tempDewpointWater temp
2018-Jun-01 16:29N 37°34' E 016°13'1020.0
2018-Jun-01 16:00N 37°38' E 016°02'1019.3
2018-Jun-01 15:27N 37°43' E 015°50'1118.7
2018-Jun-01 14:53N 37°49' E 015°38'1817.6
2018-Jun-01 13:51N 38°06' E 015°34'616.8
2018-Jun-01 13:30N 38°12' E 015°36'611.8
2018-Jun-01 12:59N 38°17' E 015°40'510.8
2018-Jun-01 12:30N 38°21' E 015°37'5 9.6
2018-Jun-01 11:59N 38°25' E 015°32'714.7
2018-Jun-01 11:29N 38°30' E 015°25'917.2
2018-Jun-01 10:59N 38°36' E 015°18'817.1
2018-Jun-01 10:30N 38°42' E 015°10'918.0
2018-Jun-01 09:59N 38°48' E 015°01'7918.7
2018-Jun-01 05:45N 39°40' E 013°44'619.4
2018-Jun-01 05:27N 39°44' E 013°39'5619.2
2018-Jun-01 02:33N 40°21' E 012°44'119.1
2018-Jun-01 02:30N 40°22' E 012°43'1019.4
2018-Jun-01 02:00N 40°28' E 012°34'6619.1
2018-May-31 22:34N 41°11' E 011°29'119.8
2018-May-31 22:30N 41°12' E 011°27'1319.8
2018-May-31 21:51N 41°21' E 011°15'1919.9
2018-May-31 20:53N 41°34' E 010°55'1819.4
2018-May-31 19:58N 41°46' E 010°38'1319.3
2018-May-31 19:17N 41°54' E 010°24'3119.2
2018-May-31 17:41N 42°16' E 009°55'320.0
2018-May-31 17:30N 42°19' E 009°54'1119.8
2018-May-31 16:58N 42°29' E 009°49'1219.7
2018-May-31 16:22N 42°40' E 009°42'719.5
2018-May-31 16:00N 42°47' E 009°39'1019.8
2018-May-31 15:30N 42°56' E 009°36'1019.4
2018-May-31 15:00N 43°06' E 009°34'1019.2
2018-May-31 14:30N 43°15' E 009°32'1019.4
2018-May-31 14:00N 43°25' E 009°30'1019.0
2018-May-31 13:30N 43°34' E 009°26'1019.5
2018-May-31 13:00N 43°42' E 009°18'1019.1
2018-May-31 12:30N 43°50' E 009°10'918.9
2018-May-31 12:00N 43°57' E 009°02'1019.0
2018-May-31 11:30N 44°04' E 008°54'1019.3
2018-May-31 11:00N 44°13' E 008°47'917.8
2018-May-31 10:31N 44°20' E 008°41'611.4
2018-May-31 10:01N 44°25' E 008°46'1 1.9
2018-May-31 09:28N 44°25' E 008°47'0 0.0
2018-May-31 08:58N 44°25' E 008°47'0 0.0
2018-May-31 08:28N 44°25' E 008°47'0 0.0
2018-May-31 07:58N 44°25' E 008°47'0 0.0
2018-May-31 07:28N 44°25' E 008°47'0 0.0
2018-May-31 06:58N 44°25' E 008°47'0 0.0
2018-May-31 06:28N 44°25' E 008°47'0 0.0
2018-May-31 05:58N 44°25' E 008°47'0 0.0
2018-May-31 05:28N 44°25' E 008°47'0 0.0
2018-May-31 04:58N 44°25' E 008°47'0 0.0
2018-May-31 04:28N 44°25' E 008°47'0 0.0
2018-May-31 03:58N 44°25' E 008°47'0 0.0
2018-May-31 03:28N 44°25' E 008°47'0 0.0
2018-May-31 02:58N 44°25' E 008°47'0 0.0
2018-May-31 02:28N 44°25' E 008°47'0 0.0
2018-May-31 01:58N 44°25' E 008°47'0 0.0
2018-May-31 01:28N 44°25' E 008°47'0 0.0
2018-May-31 00:58N 44°25' E 008°47'0 0.0
2018-May-31 00:28N 44°25' E 008°47'0 0.0
2018-May-30 23:58N 44°25' E 008°47'0 0.0
2018-May-30 23:28N 44°25' E 008°47'0 0.0
2018-May-30 22:58N 44°25' E 008°47'0 0.0
2018-May-30 22:28N 44°25' E 008°47'0 0.0
2018-May-30 21:58N 44°25' E 008°47'0 0.0
2018-May-30 21:28N 44°25' E 008°47'0 0.0
2018-May-30 20:58N 44°25' E 008°47'0 0.0
2018-May-30 20:28N 44°25' E 008°47'0 0.0
2018-May-30 19:58N 44°25' E 008°47'0 0.0
2018-May-30 19:28N 44°25' E 008°47'0 0.0
2018-May-30 18:58N 44°25' E 008°47'0 0.0
2018-May-30 18:28N 44°25' E 008°47'0 0.0
2018-May-30 17:52N 44°25' E 008°47'0 0.0
2018-May-30 17:28N 44°25' E 008°47'0 0.0
2018-May-30 16:58N 44°25' E 008°47'0 0.0
2018-May-30 16:28N 44°25' E 008°47'0 0.0
2018-May-30 15:58N 44°25' E 008°47'0 0.0
2018-May-30 15:28N 44°25' E 008°47'0 0.0
2018-May-30 14:55N 44°25' E 008°47'0 0.0
2018-May-30 14:28N 44°25' E 008°47'0 0.0
2018-May-30 13:58N 44°25' E 008°47'0 0.0
2018-May-30 13:28N 44°25' E 008°47'0 0.0
2018-May-30 12:58N 44°25' E 008°47'0 0.0
2018-May-30 12:28N 44°25' E 008°47'0 0.0
2018-May-30 11:58N 44°25' E 008°47'0 0.0
2018-May-30 11:28N 44°25' E 008°47'0 0.0
2018-May-30 10:58N 44°25' E 008°47'0 0.0
2018-May-30 10:28N 44°25' E 008°47'0 0.0
2018-May-30 09:58N 44°25' E 008°47'0 0.0
2018-May-30 09:28N 44°25' E 008°47'0 0.0
2018-May-30 08:58N 44°25' E 008°47'0 0.3
2018-May-30 08:30N 44°25' E 008°47'2 4.2
2018-May-30 08:00N 44°24' E 008°45'4 7.0
2018-May-30 07:30N 44°21' E 008°42'510.7
2018-May-30 07:00N 44°16' E 008°42'4 8.5
2018-May-30 06:30N 44°11' E 008°41'4 8.6
2018-May-30 06:00N 44°08' E 008°37'510.8
2018-May-30 05:30N 44°04' E 008°33'510.4
2018-May-30 05:00N 43°60' E 008°28'510.6
2018-May-30 04:30N 43°56' E 008°24'510.4
2018-May-30 04:00N 43°52' E 008°18'510.5
2018-May-30 03:30N 43°48' E 008°13'510.5
2018-May-30 03:00N 43°45' E 008°08'510.6
2018-May-30 02:30N 43°41' E 008°03'510.7
2018-May-30 02:00N 43°37' E 007°58'510.4
2018-May-30 01:30N 43°33' E 007°53'510.4
2018-May-30 01:00N 43°29' E 007°48'510.7
2018-May-30 00:30N 43°25' E 007°43'510.9
2018-May-30 00:00N 43°21' E 007°38'510.8
2018-May-29 23:30N 43°18' E 007°33'510.7
2018-May-29 23:00N 43°14' E 007°27'510.9
2018-May-29 22:30N 43°11' E 007°21'611.3
2018-May-29 22:00N 43°07' E 007°15'611.3
2018-May-29 21:30N 43°03' E 007°10'611.6
2018-May-29 21:00N 42°59' E 007°04'611.7
2018-May-29 20:30N 42°56' E 006°58'611.5
2018-May-29 20:00N 42°52' E 006°52'611.3
2018-May-29 19:30N 42°48' E 006°46'611.3
2018-May-29 19:00N 42°44' E 006°40'611.4
2018-May-29 18:30N 42°41' E 006°34'611.4
2018-May-29 18:00N 42°37' E 006°28'611.1
2018-May-29 17:30N 42°35' E 006°21'611.2
2018-May-29 17:00N 42°34' E 006°14'711.3
2018-May-29 16:21N 42°32' E 006°04'411.4
2018-May-29 15:58N 42°30' E 005°59'15711.7
2018-May-29 02:38N 41°26' E 002°46'312.1
2018-May-29 02:25N 41°25' E 002°43'512.1
2018-May-29 02:00N 41°24' E 002°37'612.1
2018-May-29 01:30N 41°22' E 002°29'611.9
2018-May-29 01:00N 41°19' E 002°22'612.0
2018-May-29 00:30N 41°17' E 002°15'4 7.2
2018-May-29 00:00N 41°19' E 002°10'1 2.0
2018-May-28 23:30N 41°18' E 002°09'0 0.0
2018-May-28 23:00N 41°18' E 002°09'0 0.0
2018-May-28 22:30N 41°18' E 002°09'0 0.0
2018-May-28 22:00N 41°18' E 002°09'0 0.0
2018-May-28 21:30N 41°18' E 002°09'0 0.0
2018-May-28 21:00N 41°18' E 002°09'0 0.0
2018-May-28 20:30N 41°18' E 002°09'0 0.0
2018-May-28 20:00N 41°18' E 002°09'0 0.0
2018-May-28 19:30N 41°18' E 002°09'0 0.0
2018-May-28 19:00N 41°18' E 002°09'0 0.0
2018-May-28 18:30N 41°19' E 002°09'0 0.0
2018-May-28 18:00N 41°18' E 002°09'0 0.0
2018-May-28 17:30N 41°19' E 002°09'0 0.0
2018-May-28 17:00N 41°18' E 002°09'0 0.0
2018-May-28 16:30N 41°18' E 002°09'0 0.0
2018-May-28 16:00N 41°18' E 002°09'0 0.0
2018-May-28 15:30N 41°18' E 002°09'0 0.0
2018-May-28 15:00N 41°18' E 002°09'0 0.0
2018-May-28 14:30N 41°18' E 002°09'0 0.0
2018-May-28 14:00N 41°18' E 002°09'0 0.0
2018-May-28 13:30N 41°18' E 002°09'0 0.0
2018-May-28 13:00N 41°18' E 002°09'0 0.0
2018-May-28 12:30N 41°18' E 002°09'0 0.0
2018-May-28 12:00N 41°18' E 002°09'0 0.0
2018-May-28 11:30N 41°18' E 002°09'0 0.0
2018-May-28 11:00N 41°19' E 002°09'0 0.0
2018-May-28 10:30N 41°18' E 002°09'0 0.2
2018-May-28 10:00N 41°19' E 002°09'1 2.1
2018-May-28 09:30N 41°18' E 002°10'4 7.8
2018-May-28 09:00N 41°14' E 002°10'4 8.8
2018-May-28 08:30N 41°10' E 002°09'4 7.8
2018-May-28 08:00N 41°06' E 002°08'510.6
2018-May-28 07:30N 41°02' E 002°04'511.0
2018-May-28 07:00N 40°58' E 001°59'610.9
2018-May-28 06:28N 40°53' E 001°55'124 9.0
2018-May-27 16:43N 39°27' W 000°01'311.0
2018-May-27 16:27N 39°26' W 000°05'510.8
2018-May-27 16:00N 39°26' W 000°11'5 9.6
2018-May-27 15:30N 39°25' W 000°18'2 3.4
2018-May-27 15:00N 39°27' W 000°19'0 0.2
2018-May-27 14:27N 39°27' W 000°19'0 0.0
2018-May-27 14:00N 39°27' W 000°19'0 0.0
2018-May-27 13:30N 39°27' W 000°19'0 0.0
2018-May-27 13:00N 39°27' W 000°19'0 0.0
2018-May-27 12:30N 39°27' W 000°19'0 0.0
2018-May-27 12:00N 39°27' W 000°19'0 0.0
2018-May-27 11:30N 39°27' W 000°19'0 0.0
2018-May-27 11:00N 39°27' W 000°19'0 0.0
2018-May-27 10:30N 39°27' W 000°19'0 0.0
2018-May-27 10:00N 39°27' W 000°19'0 0.0
2018-May-27 09:30N 39°27' W 000°19'0 0.0
2018-May-27 09:00N 39°27' W 000°19'0 0.0
2018-May-27 08:27N 39°27' W 000°19'0 0.0
2018-May-27 08:00N 39°27' W 000°19'0 0.0
2018-May-27 07:30N 39°27' W 000°19'0 0.0
2018-May-27 07:00N 39°27' W 000°19'0 0.0
2018-May-27 06:30N 39°27' W 000°19'0 0.0
2018-May-27 06:00N 39°27' W 000°19'0 0.0
2018-May-27 05:30N 39°27' W 000°19'0 0.0
2018-May-27 05:00N 39°27' W 000°19'0 0.0
2018-May-27 04:30N 39°27' W 000°19'0 0.0
2018-May-27 04:00N 39°27' W 000°19'0 0.0
2018-May-27 03:30N 39°27' W 000°19'0 0.0
2018-May-27 03:00N 39°27' W 000°19'0 0.0
2018-May-27 02:30N 39°27' W 000°19'0 0.0
2018-May-27 02:00N 39°27' W 000°19'0 0.0
2018-May-27 01:30N 39°27' W 000°19'0 0.0
2018-May-27 01:00N 39°27' W 000°19'0 0.0
2018-May-27 00:30N 39°27' W 000°19'0 0.0
2018-May-27 00:00N 39°27' W 000°19'0 0.0
2018-May-26 23:30N 39°27' W 000°19'0 0.0
2018-May-26 23:00N 39°27' W 000°19'0 0.0
2018-May-26 22:30N 39°27' W 000°19'1 2.8
2018-May-26 22:00N 39°26' W 000°18'3 4.9
2018-May-26 21:24N 39°25' W 000°14'5715.4
2018-May-26 17:41N 38°35' E 000°23'419.5
2018-May-26 17:30N 38°32' E 000°20'1119.5
2018-May-26 16:55N 38°22' E 000°13'819.3
2018-May-26 16:30N 38°15' E 000°07'919.0
2018-May-26 16:00N 38°08' E 000°00'1019.0
2018-May-26 15:30N 38°00' W 000°08'918.8
2018-May-26 15:00N 37°52' W 000°14'1019.2
2018-May-26 14:30N 37°44' W 000°21'1019.8
2018-May-26 14:00N 37°36' W 000°28'1020.0
2018-May-26 13:30N 37°29' W 000°36'1020.3
2018-May-26 13:00N 37°22' W 000°46'1020.0
2018-May-26 12:30N 37°15' W 000°55'1019.6
2018-May-26 12:00N 37°08' W 001°03'20819.3
2018-May-26 01:13N 36°05' W 005°10'314.3
2018-May-26 01:00N 36°05' W 005°14'3 6.7
2018-May-26 00:30N 36°05' W 005°18'4 8.6
2018-May-26 00:00N 36°07' W 005°23'3 6.5
2018-May-25 23:30N 36°09' W 005°26'0 0.7
2018-May-25 23:00N 36°08' W 005°26'0 0.0
2018-May-25 22:30N 36°08' W 005°26'0 0.0
2018-May-25 21:57N 36°08' W 005°26'0 0.0
2018-May-25 21:30N 36°08' W 005°26'0 0.0
2018-May-25 20:57N 36°08' W 005°26'0 0.0
2018-May-25 20:27N 36°08' W 005°26'0 0.0
2018-May-25 19:57N 36°08' W 005°26'0 0.0
2018-May-25 19:30N 36°08' W 005°26'0 0.0
2018-May-25 18:57N 36°08' W 005°26'0 0.0
2018-May-25 18:21N 36°08' W 005°26'0 0.0
2018-May-25 17:57N 36°08' W 005°26'0 0.0
2018-May-25 16:21N 36°08' W 005°26'0 0.0
2018-May-25 15:51N 36°08' W 005°26'0 0.0
2018-May-25 15:18N 36°08' W 005°26'0 0.0
2018-May-25 14:54N 36°08' W 005°26'0 0.0
2018-May-25 14:30N 36°08' W 005°26'0 0.0
2018-May-25 13:54N 36°08' W 005°26'0 0.0
2018-May-25 13:30N 36°08' W 005°26'0 0.0
2018-May-25 13:00N 36°08' W 005°26'0 0.0
2018-May-25 07:57N 36°08' W 005°26'0 0.0
2018-May-25 07:30N 36°08' W 005°26'0 0.0
2018-May-25 07:00N 36°08' W 005°26'0 0.0
2018-May-25 06:30N 36°08' W 005°26'0 0.0
2018-May-25 05:03N 36°08' W 005°26'0 0.1
2018-May-25 04:57N 36°08' W 005°26'0 0.0
2018-May-25 04:30N 36°08' W 005°26'0 0.0
2018-May-25 03:45N 36°08' W 005°26'0 0.0
2018-May-25 03:27N 36°08' W 005°26'0 0.0
2018-May-25 03:00N 36°08' W 005°26'0 0.0
2018-May-25 02:27N 36°08' W 005°26'0 0.0
2018-May-25 01:45N 36°08' W 005°26'0 0.0
2018-May-24 23:51N 36°08' W 005°26'0 0.0
2018-May-24 23:30N 36°08' W 005°26'0 0.0
2018-May-24 22:57N 36°08' W 005°26'0 0.0
2018-May-24 22:27N 36°08' W 005°26'0 0.0
2018-May-24 21:51N 36°08' W 005°26'0 0.0
2018-May-24 21:27N 36°08' W 005°26'0 0.0
2018-May-24 20:57N 36°08' W 005°26'0 0.0
2018-May-24 20:27N 36°08' W 005°26'0 0.0
2018-May-24 19:33N 36°08' W 005°26'0 0.0
2018-May-24 17:45N 36°08' W 005°26'0 0.0
2018-May-24 17:30N 36°08' W 005°26'1 2.4
2018-May-24 17:00N 36°09' W 005°25'3 5.5
2018-May-24 16:30N 36°07' W 005°23'3 6.6
2018-May-24 16:00N 36°04' W 005°21'1 1.3
2018-May-24 15:26N 36°03' W 005°22'2 4.4
2018-May-24 15:00N 36°01' W 005°22'4 7.4
2018-May-24 14:30N 35°58' W 005°25'6 0.5
2018-May-24 01:02N 35°53' W 005°30'0 0.0
2018-May-23 23:11N 35°53' W 005°30'0 0.4
2018-May-23 22:59N 35°54' W 005°30'1 2.9
2018-May-23 22:30N 35°55' W 005°30'4 6.6
2018-May-23 21:57N 35°57' W 005°33'2 4.5
2018-May-23 21:30N 35°58' W 005°31'4 7.1
2018-May-23 21:00N 35°59' W 005°27'612.6
2018-May-23 20:31N 36°01' W 005°20'815.7
2018-May-23 20:01N 36°04' W 005°10'21718.8
2018-May-23 08:26N 36°47' W 000°46'1519.7
2018-May-23 07:39N 36°53' W 000°28'319.8
2018-May-23 07:29N 36°54' W 000°24'1019.8
2018-May-23 06:59N 36°57' W 000°12'1020.1
2018-May-23 06:31N 37°00' W 000°01'1019.9
2018-May-23 06:01N 37°03' E 000°11'1019.5
2018-May-23 05:31N 37°06' E 000°23'1019.4
2018-May-23 05:00N 37°09' E 000°34'1019.5
2018-May-23 04:31N 37°12' E 000°46'1019.7
2018-May-23 04:01N 37°15' E 000°58'1019.5
2018-May-23 03:31N 37°19' E 001°09'1019.0
2018-May-23 03:00N 37°22' E 001°21'918.4
2018-May-23 02:31N 37°24' E 001°31'918.4
2018-May-23 02:00N 37°27' E 001°43'918.4
2018-May-23 01:30N 37°30' E 001°54'918.3
2018-May-23 01:00N 37°32' E 002°05'2819.0
2018-May-22 23:33N 37°41' E 002°38'219.0
2018-May-22 23:26N 37°42' E 002°40'3819.2
2018-May-22 21:28N 37°54' E 003°26'919.8
2018-May-22 21:00N 37°57' E 003°37'1119.6
2018-May-22 20:27N 38°00' E 003°50'6219.3
2018-May-22 17:14N 37°60' E 005°09'  
Track history (hours):
 
Tides and Currents Weather Stations Pressure Air Temp Water Temp Dewpoint Dewpoint Depression Visibility Wind Speed Wind Dir Waves Ship Positions

Seroja Empat

Last reported at 2018-Jun-01 16:29 UTC. Time now 2018-Jun-22 05:42 UTC.
Position N 37°34' E 016°13'.
Warning: this ship's position is 20 days out of date.

Length 316 m; draft 12.6 m.

Type: Ship (hazmat cat A). MMSI: 356575000.

Date/timePositionNaut miles runAvg speedWind from/ knotsBaromVisibWave heightAir tempDewpointWater temp
2018-Jun-01 16:29N 37°34' E 016°13'1020.0
2018-Jun-01 16:00N 37°38' E 016°02'1019.3
2018-Jun-01 15:27N 37°43' E 015°50'1118.7
2018-Jun-01 14:53N 37°49' E 015°38'1817.6
2018-Jun-01 13:51N 38°06' E 015°34'616.8
2018-Jun-01 13:30N 38°12' E 015°36'611.8
2018-Jun-01 12:59N 38°17' E 015°40'510.8
2018-Jun-01 12:30N 38°21' E 015°37'5 9.6
2018-Jun-01 11:59N 38°25' E 015°32'714.7
2018-Jun-01 11:29N 38°30' E 015°25'917.2
2018-Jun-01 10:59N 38°36' E 015°18'817.1
2018-Jun-01 10:30N 38°42' E 015°10'918.0
2018-Jun-01 09:59N 38°48' E 015°01'7918.7
2018-Jun-01 05:45N 39°40' E 013°44'619.4
2018-Jun-01 05:27N 39°44' E 013°39'5619.2
2018-Jun-01 02:33N 40°21' E 012°44'119.1
2018-Jun-01 02:30N 40°22' E 012°43'1019.4
2018-Jun-01 02:00N 40°28' E 012°34'6619.1
2018-May-31 22:34N 41°11' E 011°29'119.8
2018-May-31 22:30N 41°12' E 011°27'1319.8
2018-May-31 21:51N 41°21' E 011°15'1919.9
2018-May-31 20:53N 41°34' E 010°55'1819.4
2018-May-31 19:58N 41°46' E 010°38'1319.3
2018-May-31 19:17N 41°54' E 010°24'3119.2
2018-May-31 17:41N 42°16' E 009°55'320.0
2018-May-31 17:30N 42°19' E 009°54'1119.8
2018-May-31 16:58N 42°29' E 009°49'1219.7
2018-May-31 16:22N 42°40' E 009°42'719.5
2018-May-31 16:00N 42°47' E 009°39'1019.8
2018-May-31 15:30N 42°56' E 009°36'1019.4
2018-May-31 15:00N 43°06' E 009°34'1019.2
2018-May-31 14:30N 43°15' E 009°32'1019.4
2018-May-31 14:00N 43°25' E 009°30'1019.0
2018-May-31 13:30N 43°34' E 009°26'1019.5
2018-May-31 13:00N 43°42' E 009°18'1019.1
2018-May-31 12:30N 43°50' E 009°10'918.9
2018-May-31 12:00N 43°57' E 009°02'1019.0
2018-May-31 11:30N 44°04' E 008°54'1019.3
2018-May-31 11:00N 44°13' E 008°47'917.8
2018-May-31 10:31N 44°20' E 008°41'611.4
2018-May-31 10:01N 44°25' E 008°46'1 1.9
2018-May-31 09:28N 44°25' E 008°47'0 0.0
2018-May-31 08:58N 44°25' E 008°47'0 0.0
2018-May-31 08:28N 44°25' E 008°47'0 0.0
2018-May-31 07:58N 44°25' E 008°47'0 0.0
2018-May-31 07:28N 44°25' E 008°47'0 0.0
2018-May-31 06:58N 44°25' E 008°47'0 0.0
2018-May-31 06:28N 44°25' E 008°47'0 0.0
2018-May-31 05:58N 44°25' E 008°47'0 0.0
2018-May-31 05:28N 44°25' E 008°47'0 0.0
2018-May-31 04:58N 44°25' E 008°47'0 0.0
2018-May-31 04:28N 44°25' E 008°47'0 0.0
2018-May-31 03:58N 44°25' E 008°47'0 0.0
2018-May-31 03:28N 44°25' E 008°47'0 0.0
2018-May-31 02:58N 44°25' E 008°47'0 0.0
2018-May-31 02:28N 44°25' E 008°47'0 0.0
2018-May-31 01:58N 44°25' E 008°47'0 0.0
2018-May-31 01:28N 44°25' E 008°47'0 0.0
2018-May-31 00:58N 44°25' E 008°47'0 0.0
2018-May-31 00:28N 44°25' E 008°47'0 0.0
2018-May-30 23:58N 44°25' E 008°47'0 0.0
2018-May-30 23:28N 44°25' E 008°47'0 0.0
2018-May-30 22:58N 44°25' E 008°47'0 0.0
2018-May-30 22:28N 44°25' E 008°47'0 0.0
2018-May-30 21:58N 44°25' E 008°47'0 0.0
2018-May-30 21:28N 44°25' E 008°47'0 0.0
2018-May-30 20:58N 44°25' E 008°47'0 0.0
2018-May-30 20:28N 44°25' E 008°47'0 0.0
2018-May-30 19:58N 44°25' E 008°47'0 0.0
2018-May-30 19:28N 44°25' E 008°47'0 0.0
2018-May-30 18:58N 44°25' E 008°47'0 0.0
2018-May-30 18:28N 44°25' E 008°47'0 0.0
2018-May-30 17:52N 44°25' E 008°47'0 0.0
2018-May-30 17:28N 44°25' E 008°47'0 0.0
2018-May-30 16:58N 44°25' E 008°47'0 0.0
2018-May-30 16:28N 44°25' E 008°47'0 0.0
2018-May-30 15:58N 44°25' E 008°47'0 0.0
2018-May-30 15:28N 44°25' E 008°47'0 0.0
2018-May-30 14:55N 44°25' E 008°47'0 0.0
2018-May-30 14:28N 44°25' E 008°47'0 0.0
2018-May-30 13:58N 44°25' E 008°47'0 0.0
2018-May-30 13:28N 44°25' E 008°47'0 0.0
2018-May-30 12:58N 44°25' E 008°47'0 0.0
2018-May-30 12:28N 44°25' E 008°47'0 0.0
2018-May-30 11:58N 44°25' E 008°47'0 0.0
2018-May-30 11:28N 44°25' E 008°47'0 0.0
2018-May-30 10:58N 44°25' E 008°47'0 0.0
2018-May-30 10:28N 44°25' E 008°47'0 0.0
2018-May-30 09:58N 44°25' E 008°47'0 0.0
2018-May-30 09:28N 44°25' E 008°47'0 0.0
2018-May-30 08:58N 44°25' E 008°47'0 0.3
2018-May-30 08:30N 44°25' E 008°47'2 4.2
2018-May-30 08:00N 44°24' E 008°45'4 7.0
2018-May-30 07:30N 44°21' E 008°42'510.7
2018-May-30 07:00N 44°16' E 008°42'4 8.5
2018-May-30 06:30N 44°11' E 008°41'4 8.6
2018-May-30 06:00N 44°08' E 008°37'510.8
2018-May-30 05:30N 44°04' E 008°33'510.4
2018-May-30 05:00N 43°60' E 008°28'510.6
2018-May-30 04:30N 43°56' E 008°24'510.4
2018-May-30 04:00N 43°52' E 008°18'510.5
2018-May-30 03:30N 43°48' E 008°13'510.5
2018-May-30 03:00N 43°45' E 008°08'510.6
2018-May-30 02:30N 43°41' E 008°03'510.7
2018-May-30 02:00N 43°37' E 007°58'510.4
2018-May-30 01:30N 43°33' E 007°53'510.4
2018-May-30 01:00N 43°29' E 007°48'510.7
2018-May-30 00:30N 43°25' E 007°43'510.9
2018-May-30 00:00N 43°21' E 007°38'510.8
2018-May-29 23:30N 43°18' E 007°33'510.7
2018-May-29 23:00N 43°14' E 007°27'510.9
2018-May-29 22:30N 43°11' E 007°21'611.3
2018-May-29 22:00N 43°07' E 007°15'611.3
2018-May-29 21:30N 43°03' E 007°10'611.6
2018-May-29 21:00N 42°59' E 007°04'611.7
2018-May-29 20:30N 42°56' E 006°58'611.5
2018-May-29 20:00N 42°52' E 006°52'611.3
2018-May-29 19:30N 42°48' E 006°46'611.3
2018-May-29 19:00N 42°44' E 006°40'611.4
2018-May-29 18:30N 42°41' E 006°34'611.4
2018-May-29 18:00N 42°37' E 006°28'611.1
2018-May-29 17:30N 42°35' E 006°21'611.2
2018-May-29 17:00N 42°34' E 006°14'711.3
2018-May-29 16:21N 42°32' E 006°04'411.4
2018-May-29 15:58N 42°30' E 005°59'15711.7
2018-May-29 02:38N 41°26' E 002°46'312.1
2018-May-29 02:25N 41°25' E 002°43'512.1
2018-May-29 02:00N 41°24' E 002°37'612.1
2018-May-29 01:30N 41°22' E 002°29'611.9
2018-May-29 01:00N 41°19' E 002°22'612.0
2018-May-29 00:30N 41°17' E 002°15'4 7.2
2018-May-29 00:00N 41°19' E 002°10'1 2.0
2018-May-28 23:30N 41°18' E 002°09'0 0.0
2018-May-28 23:00N 41°18' E 002°09'0 0.0
2018-May-28 22:30N 41°18' E 002°09'0 0.0
2018-May-28 22:00N 41°18' E 002°09'0 0.0
2018-May-28 21:30N 41°18' E 002°09'0 0.0
2018-May-28 21:00N 41°18' E 002°09'0 0.0
2018-May-28 20:30N 41°18' E 002°09'0 0.0
2018-May-28 20:00N 41°18' E 002°09'0 0.0
2018-May-28 19:30N 41°18' E 002°09'0 0.0
2018-May-28 19:00N 41°18' E 002°09'0 0.0
2018-May-28 18:30N 41°19' E 002°09'0 0.0
2018-May-28 18:00N 41°18' E 002°09'0 0.0
2018-May-28 17:30N 41°19' E 002°09'0 0.0
2018-May-28 17:00N 41°18' E 002°09'0 0.0
2018-May-28 16:30N 41°18' E 002°09'0 0.0
2018-May-28 16:00N 41°18' E 002°09'0 0.0
2018-May-28 15:30N 41°18' E 002°09'0 0.0
2018-May-28 15:00N 41°18' E 002°09'0 0.0
2018-May-28 14:30N 41°18' E 002°09'0 0.0
2018-May-28 14:00N 41°18' E 002°09'0 0.0
2018-May-28 13:30N 41°18' E 002°09'0 0.0
2018-May-28 13:00N 41°18' E 002°09'0 0.0
2018-May-28 12:30N 41°18' E 002°09'0 0.0
2018-May-28 12:00N 41°18' E 002°09'0 0.0
2018-May-28 11:30N 41°18' E 002°09'0 0.0
2018-May-28 11:00N 41°19' E 002°09'0 0.0
2018-May-28 10:30N 41°18' E 002°09'0 0.2
2018-May-28 10:00N 41°19' E 002°09'1 2.1
2018-May-28 09:30N 41°18' E 002°10'4 7.8
2018-May-28 09:00N 41°14' E 002°10'4 8.8
2018-May-28 08:30N 41°10' E 002°09'4 7.8
2018-May-28 08:00N 41°06' E 002°08'510.6
2018-May-28 07:30N 41°02' E 002°04'511.0
2018-May-28 07:00N 40°58' E 001°59'610.9
2018-May-28 06:28N 40°53' E 001°55'124 9.0
2018-May-27 16:43N 39°27' W 000°01'311.0
2018-May-27 16:27N 39°26' W 000°05'510.8
2018-May-27 16:00N 39°26' W 000°11'5 9.6
2018-May-27 15:30N 39°25' W 000°18'2 3.4
2018-May-27 15:00N 39°27' W 000°19'0 0.2
2018-May-27 14:27N 39°27' W 000°19'0 0.0
2018-May-27 14:00N 39°27' W 000°19'0 0.0
2018-May-27 13:30N 39°27' W 000°19'0 0.0
2018-May-27 13:00N 39°27' W 000°19'0 0.0
2018-May-27 12:30N 39°27' W 000°19'0 0.0
2018-May-27 12:00N 39°27' W 000°19'0 0.0
2018-May-27 11:30N 39°27' W 000°19'0 0.0
2018-May-27 11:00N 39°27' W 000°19'0 0.0
2018-May-27 10:30N 39°27' W 000°19'0 0.0
2018-May-27 10:00N 39°27' W 000°19'0 0.0
2018-May-27 09:30N 39°27' W 000°19'0 0.0
2018-May-27 09:00N 39°27' W 000°19'0 0.0
2018-May-27 08:27N 39°27' W 000°19'0 0.0
2018-May-27 08:00N 39°27' W 000°19'0 0.0
2018-May-27 07:30N 39°27' W 000°19'0 0.0
2018-May-27 07:00N 39°27' W 000°19'0 0.0
2018-May-27 06:30N 39°27' W 000°19'0 0.0
2018-May-27 06:00N 39°27' W 000°19'0 0.0
2018-May-27 05:30N 39°27' W 000°19'0 0.0
2018-May-27 05:00N 39°27' W 000°19'0 0.0
2018-May-27 04:30N 39°27' W 000°19'0 0.0
2018-May-27 04:00N 39°27' W 000°19'0 0.0
2018-May-27 03:30N 39°27' W 000°19'0 0.0
2018-May-27 03:00N 39°27' W 000°19'0 0.0
2018-May-27 02:30N 39°27' W 000°19'0 0.0
2018-May-27 02:00N 39°27' W 000°19'0 0.0
2018-May-27 01:30N 39°27' W 000°19'0 0.0
2018-May-27 01:00N 39°27' W 000°19'0 0.0
2018-May-27 00:30N 39°27' W 000°19'0 0.0
2018-May-27 00:00N 39°27' W 000°19'0 0.0
2018-May-26 23:30N 39°27' W 000°19'0 0.0
2018-May-26 23:00N 39°27' W 000°19'0 0.0
2018-May-26 22:30N 39°27' W 000°19'1 2.8
2018-May-26 22:00N 39°26' W 000°18'3 4.9
2018-May-26 21:24N 39°25' W 000°14'5715.4
2018-May-26 17:41N 38°35' E 000°23'419.5
2018-May-26 17:30N 38°32' E 000°20'1119.5
2018-May-26 16:55N 38°22' E 000°13'819.3
2018-May-26 16:30N 38°15' E 000°07'919.0
2018-May-26 16:00N 38°08' E 000°00'1019.0
2018-May-26 15:30N 38°00' W 000°08'918.8
2018-May-26 15:00N 37°52' W 000°14'1019.2
2018-May-26 14:30N 37°44' W 000°21'1019.8
2018-May-26 14:00N 37°36' W 000°28'1020.0
2018-May-26 13:30N 37°29' W 000°36'1020.3
2018-May-26 13:00N 37°22' W 000°46'1020.0
2018-May-26 12:30N 37°15' W 000°55'1019.6
2018-May-26 12:00N 37°08' W 001°03'20819.3
2018-May-26 01:13N 36°05' W 005°10'314.3
2018-May-26 01:00N 36°05' W 005°14'3 6.7
2018-May-26 00:30N 36°05' W 005°18'4 8.6
2018-May-26 00:00N 36°07' W 005°23'3 6.5
2018-May-25 23:30N 36°09' W 005°26'0 0.7
2018-May-25 23:00N 36°08' W 005°26'0 0.0
2018-May-25 22:30N 36°08' W 005°26'0 0.0
2018-May-25 21:57N 36°08' W 005°26'0 0.0
2018-May-25 21:30N 36°08' W 005°26'0 0.0
2018-May-25 20:57N 36°08' W 005°26'0 0.0
2018-May-25 20:27N 36°08' W 005°26'0 0.0
2018-May-25 19:57N 36°08' W 005°26'0 0.0
2018-May-25 19:30N 36°08' W 005°26'0 0.0
2018-May-25 18:57N 36°08' W 005°26'0 0.0
2018-May-25 18:21N 36°08' W 005°26'0 0.0
2018-May-25 17:57N 36°08' W 005°26'0 0.0
2018-May-25 16:21N 36°08' W 005°26'0 0.0
2018-May-25 15:51N 36°08' W 005°26'0 0.0
2018-May-25 15:18N 36°08' W 005°26'0 0.0
2018-May-25 14:54N 36°08' W 005°26'0 0.0
2018-May-25 14:30N 36°08' W 005°26'0 0.0
2018-May-25 13:54N 36°08' W 005°26'0 0.0
2018-May-25 13:30N 36°08' W 005°26'0 0.0
2018-May-25 13:00N 36°08' W 005°26'0 0.0
2018-May-25 07:57N 36°08' W 005°26'0 0.0
2018-May-25 07:30N 36°08' W 005°26'0 0.0
2018-May-25 07:00N 36°08' W 005°26'0 0.0
2018-May-25 06:30N 36°08' W 005°26'0 0.0
2018-May-25 05:03N 36°08' W 005°26'0 0.1
2018-May-25 04:57N 36°08' W 005°26'0 0.0
2018-May-25 04:30N 36°08' W 005°26'0 0.0
2018-May-25 03:45N 36°08' W 005°26'0 0.0
2018-May-25 03:27N 36°08' W 005°26'0 0.0
2018-May-25 03:00N 36°08' W 005°26'0 0.0
2018-May-25 02:27N 36°08' W 005°26'0 0.0
2018-May-25 01:45N 36°08' W 005°26'0 0.0
2018-May-24 23:51N 36°08' W 005°26'0 0.0
2018-May-24 23:30N 36°08' W 005°26'0 0.0
2018-May-24 22:57N 36°08' W 005°26'0 0.0
2018-May-24 22:27N 36°08' W 005°26'0 0.0
2018-May-24 21:51N 36°08' W 005°26'0 0.0
2018-May-24 21:27N 36°08' W 005°26'0 0.0
2018-May-24 20:57N 36°08' W 005°26'0 0.0
2018-May-24 20:27N 36°08' W 005°26'0 0.0
2018-May-24 19:33N 36°08' W 005°26'0 0.0
2018-May-24 17:45N 36°08' W 005°26'0 0.0
2018-May-24 17:30N 36°08' W 005°26'1 2.4
2018-May-24 17:00N 36°09' W 005°25'3 5.5
2018-May-24 16:30N 36°07' W 005°23'3 6.6
2018-May-24 16:00N 36°04' W 005°21'1 1.3
2018-May-24 15:26N 36°03' W 005°22'2 4.4
2018-May-24 15:00N 36°01' W 005°22'4 7.4
2018-May-24 14:30N 35°58' W 005°25'6 0.5
2018-May-24 01:02N 35°53' W 005°30'0 0.0
2018-May-23 23:11N 35°53' W 005°30'0 0.4
2018-May-23 22:59N 35°54' W 005°30'1 2.9
2018-May-23 22:30N 35°55' W 005°30'4 6.6
2018-May-23 21:57N 35°57' W 005°33'2 4.5
2018-May-23 21:30N 35°58' W 005°31'4 7.1
2018-May-23 21:00N 35°59' W 005°27'612.6
2018-May-23 20:31N 36°01' W 005°20'815.7
2018-May-23 20:01N 36°04' W 005°10'21718.8
2018-May-23 08:26N 36°47' W 000°46'1519.7
2018-May-23 07:39N 36°53' W 000°28'319.8
2018-May-23 07:29N 36°54' W 000°24'1019.8
2018-May-23 06:59N 36°57' W 000°12'1020.1
2018-May-23 06:31N 37°00' W 000°01'1019.9
2018-May-23 06:01N 37°03' E 000°11'1019.5
2018-May-23 05:31N 37°06' E 000°23'1019.4
2018-May-23 05:00N 37°09' E 000°34'1019.5
2018-May-23 04:31N 37°12' E 000°46'1019.7
2018-May-23 04:01N 37°15' E 000°58'1019.5
2018-May-23 03:31N 37°19' E 001°09'1019.0
2018-May-23 03:00N 37°22' E 001°21'918.4
2018-May-23 02:31N 37°24' E 001°31'918.4
2018-May-23 02:00N 37°27' E 001°43'918.4
2018-May-23 01:30N 37°30' E 001°54'918.3
2018-May-23 01:00N 37°32' E 002°05'2819.0
2018-May-22 23:33N 37°41' E 002°38'219.0
2018-May-22 23:26N 37°42' E 002°40'3819.2
2018-May-22 21:28N 37°54' E 003°26'919.8
2018-May-22 21:00N 37°57' E 003°37'1119.6
2018-May-22 20:27N 38°00' E 003°50'6219.3
2018-May-22 17:14N 37°60' E 005°09'  

Dump ship's entire track history